sensor_id;sensor_type;location;lat;lon;timestamp;pressure;altitude;pressure_sealevel;temperature;humidity
75617;BME280;64200;55.426;37.758;2023-03-11T00:03:28;98771.88;;;-4.11;53.25
75617;BME280;64200;55.426;37.758;2023-03-11T00:08:29;98779.63;;;-4.20;53.09
75617;BME280;64200;55.426;37.758;2023-03-11T00:13:30;98779.59;;;-4.49;52.89
75617;BME280;64200;55.426;37.758;2023-03-11T00:18:32;98774.50;;;-4.69;53.23
75617;BME280;64200;55.426;37.758;2023-03-11T00:23:32;98770.91;;;-4.98;53.94
75617;BME280;64200;55.426;37.758;2023-03-11T00:28:34;98772.00;;;-5.10;54.19
75617;BME280;64200;55.426;37.758;2023-03-11T00:33:38;98778.63;;;-5.07;54.03
75617;BME280;64200;55.426;37.758;2023-03-11T00:38:38;98777.13;;;-4.94;54.00
75617;BME280;64200;55.426;37.758;2023-03-11T00:43:39;98788.03;;;-4.80;54.23
75617;BME280;64200;55.426;37.758;2023-03-11T00:48:39;98780.25;;;-4.96;54.46
75617;BME280;64200;55.426;37.758;2023-03-11T00:53:40;98784.50;;;-4.98;54.41
75617;BME280;64200;55.426;37.758;2023-03-11T00:58:42;98784.50;;;-4.98;54.13
75617;BME280;64200;55.426;37.758;2023-03-11T01:03:43;98783.69;;;-5.02;54.54
75617;BME280;64200;55.426;37.758;2023-03-11T01:08:44;98770.19;;;-4.77;54.63
75617;BME280;64200;55.426;37.758;2023-03-11T01:13:44;98767.13;;;-4.65;53.77
75617;BME280;64200;55.426;37.758;2023-03-11T01:18:46;98767.09;;;-4.68;53.94
75617;BME280;64200;55.426;37.758;2023-03-11T01:23:47;98770.63;;;-4.61;54.14
75617;BME280;64200;55.426;37.758;2023-03-11T01:28:47;98782.69;;;-4.62;54.01
75617;BME280;64200;55.426;37.758;2023-03-11T01:33:48;98773.31;;;-4.68;53.91
75617;BME280;64200;55.426;37.758;2023-03-11T01:38:48;98766.28;;;-4.87;54.08
75617;BME280;64200;55.426;37.758;2023-03-11T01:43:50;98762.34;;;-4.97;54.22
75617;BME280;64200;55.426;37.758;2023-03-11T01:48:53;98760.78;;;-4.98;54.58
75617;BME280;64200;55.426;37.758;2023-03-11T01:53:55;98753.44;;;-4.90;54.54
75617;BME280;64200;55.426;37.758;2023-03-11T01:58:56;98759.22;;;-5.02;54.73
75617;BME280;64200;55.426;37.758;2023-03-11T02:03:58;98757.25;;;-5.05;55.42
75617;BME280;64200;55.426;37.758;2023-03-11T02:09:02;98759.59;;;-5.04;55.01
75617;BME280;64200;55.426;37.758;2023-03-11T02:14:05;98747.06;;;-5.30;55.32
75617;BME280;64200;55.426;37.758;2023-03-11T02:29:35;98745.81;;;-5.43;56.03
75617;BME280;64200;55.426;37.758;2023-03-11T02:34:38;98751.63;;;-5.45;56.09
75617;BME280;64200;55.426;37.758;2023-03-11T02:39:50;98739.19;;;-5.50;56.19
75617;BME280;64200;55.426;37.758;2023-03-11T02:45:12;98750.50;;;-5.44;56.05
75617;BME280;64200;55.426;37.758;2023-03-11T02:50:16;98738.88;;;-5.37;56.10
75617;BME280;64200;55.426;37.758;2023-03-11T02:55:18;98755.91;;;-5.48;56.71
75617;BME280;64200;55.426;37.758;2023-03-11T03:00:19;98748.88;;;-5.56;57.32
75617;BME280;64200;55.426;37.758;2023-03-11T03:05:21;98760.94;;;-5.50;57.05
75617;BME280;64200;55.426;37.758;2023-03-11T03:10:23;98756.31;;;-5.49;56.98
75617;BME280;64200;55.426;37.758;2023-03-11T03:15:24;98753.97;;;-5.51;56.91
75617;BME280;64200;55.426;37.758;2023-03-11T03:20:25;98741.47;;;-5.59;57.11
75617;BME280;64200;55.426;37.758;2023-03-11T03:25:25;98752.69;;;-5.64;57.70
75617;BME280;64200;55.426;37.758;2023-03-11T03:30:26;98751.53;;;-5.67;57.79
75617;BME280;64200;55.426;37.758;2023-03-11T03:35:28;98751.91;;;-5.68;57.43
75617;BME280;64200;55.426;37.758;2023-03-11T03:40:29;98760.66;;;-5.89;58.60
75617;BME280;64200;55.426;37.758;2023-03-11T03:45:30;98720.31;;;-5.91;57.97
75617;BME280;64200;55.426;37.758;2023-03-11T03:50:30;98737.13;;;-5.74;58.75
75617;BME280;64200;55.426;37.758;2023-03-11T03:55:31;98748.78;;;-5.70;58.79
75617;BME280;64200;55.426;37.758;2023-03-11T04:00:31;98736.72;;;-5.76;59.72
75617;BME280;64200;55.426;37.758;2023-03-11T04:05:32;98728.19;;;-5.78;60.02
75617;BME280;64200;55.426;37.758;2023-03-11T04:10:32;98728.19;;;-5.78;60.60
75617;BME280;64200;55.426;37.758;2023-03-11T04:15:33;98710.69;;;-5.81;60.83
75617;BME280;64200;55.426;37.758;2023-03-11T04:20:33;98704.56;;;-5.67;60.37
75617;BME280;64200;55.426;37.758;2023-03-11T04:25:34;98715.38;;;-5.78;61.08
75617;BME280;64200;55.426;37.758;2023-03-11T04:30:34;98699.00;;;-5.89;61.78
75617;BME280;64200;55.426;37.758;2023-03-11T04:35:37;98696.81;;;-5.65;61.29
75617;BME280;64200;55.426;37.758;2023-03-11T04:40:38;98697.53;;;-5.75;62.88
75617;BME280;64200;55.426;37.758;2023-03-11T04:45:39;98684.81;;;-5.60;62.34
75617;BME280;64200;55.426;37.758;2023-03-11T04:50:40;98691.81;;;-5.52;62.17
75617;BME280;64200;55.426;37.758;2023-03-11T04:55:40;98664.28;;;-5.51;62.65
75617;BME280;64200;55.426;37.758;2023-03-11T05:00:41;98685.53;;;-5.67;64.04
75617;BME280;64200;55.426;37.758;2023-03-11T05:05:42;98684.69;;;-5.82;64.04
75617;BME280;64200;55.426;37.758;2023-03-11T05:10:43;98688.19;;;-5.82;64.98
75617;BME280;64200;55.426;37.758;2023-03-11T05:15:45;98680.09;;;-5.67;64.64
75617;BME280;64200;55.426;37.758;2023-03-11T05:20:46;98677.50;;;-5.42;63.89
75617;BME280;64200;55.426;37.758;2023-03-11T05:25:46;98686.44;;;-5.41;63.62
75617;BME280;64200;55.426;37.758;2023-03-11T05:30:47;98675.97;;;-5.39;64.44
75617;BME280;64200;55.426;37.758;2023-03-11T05:35:48;98655.78;;;-5.35;64.45
75617;BME280;64200;55.426;37.758;2023-03-11T05:40:51;98677.88;;;-5.47;65.58
75617;BME280;64200;55.426;37.758;2023-03-11T05:45:51;98665.53;;;-5.23;65.01
75617;BME280;64200;55.426;37.758;2023-03-11T05:50:52;98697.75;;;-5.32;65.15
75617;BME280;64200;55.426;37.758;2023-03-11T05:55:59;98684.53;;;-5.34;65.56
75617;BME280;64200;55.426;37.758;2023-03-11T06:01:10;98686.00;;;-5.54;66.08
75617;BME280;64200;55.426;37.758;2023-03-11T06:06:12;98680.69;;;-5.18;65.60
75617;BME280;64200;55.426;37.758;2023-03-11T06:11:12;98679.50;;;-5.24;65.61
75617;BME280;64200;55.426;37.758;2023-03-11T06:16:13;98671.41;;;-5.06;65.55
75617;BME280;64200;55.426;37.758;2023-03-11T06:21:19;98654.00;;;-4.73;64.81
75617;BME280;64200;55.426;37.758;2023-03-11T06:26:21;98680.41;;;-4.88;64.74
75617;BME280;64200;55.426;37.758;2023-03-11T06:31:24;98661.38;;;-4.70;65.29
75617;BME280;64200;55.426;37.758;2023-03-11T06:36:26;98676.56;;;-4.40;64.27
75617;BME280;64200;55.426;37.758;2023-03-11T06:41:26;98673.06;;;-4.33;63.76
75617;BME280;64200;55.426;37.758;2023-03-11T06:46:27;98657.50;;;-4.26;62.88
75617;BME280;64200;55.426;37.758;2023-03-11T06:51:27;98654.00;;;-4.41;63.97
75617;BME280;64200;55.426;37.758;2023-03-11T06:56:28;98648.94;;;-4.74;64.52
75617;BME280;64200;55.426;37.758;2023-03-11T07:01:28;98654.41;;;-4.67;64.64
75617;BME280;64200;55.426;37.758;2023-03-11T07:06:28;98617.06;;;-4.52;65.23
75617;BME280;64200;55.426;37.758;2023-03-11T07:11:29;98631.81;;;-4.21;64.74
75617;BME280;64200;55.426;37.758;2023-03-11T07:16:29;98630.66;;;-4.34;65.00
75617;BME280;64200;55.426;37.758;2023-03-11T07:21:31;98615.09;;;-4.16;64.13
75617;BME280;64200;55.426;37.758;2023-03-11T07:26:33;98624.44;;;-4.17;64.41
75617;BME280;64200;55.426;37.758;2023-03-11T07:31:35;98632.16;;;-3.90;63.98
75617;BME280;64200;55.426;37.758;2023-03-11T07:36:36;98628.25;;;-3.89;63.88
75617;BME280;64200;55.426;37.758;2023-03-11T07:41:38;98597.88;;;-3.80;64.38
75617;BME280;64200;55.426;37.758;2023-03-11T07:46:39;98585.28;;;-3.53;63.33
75617;BME280;64200;55.426;37.758;2023-03-11T07:51:40;98570.75;;;-3.28;63.63
75617;BME280;64200;55.426;37.758;2023-03-11T07:56:42;98574.56;;;-3.14;62.82
75617;BME280;64200;55.426;37.758;2023-03-11T08:01:43;98533.94;;;-3.58;63.71
75617;BME280;64200;55.426;37.758;2023-03-11T08:06:46;98525.97;;;-4.01;65.64
75617;BME280;64200;55.426;37.758;2023-03-11T08:11:47;98531.31;;;-3.83;64.16
75617;BME280;64200;55.426;37.758;2023-03-11T08:16:48;98539.25;;;-4.21;64.45
75617;BME280;64200;55.426;37.758;2023-03-11T08:21:48;98533.06;;;-4.36;65.54
75617;BME280;64200;55.426;37.758;2023-03-11T08:26:49;98518.47;;;-3.79;64.58
75617;BME280;64200;55.426;37.758;2023-03-11T08:31:49;98527.84;;;-3.94;64.59
75617;BME280;64200;55.426;37.758;2023-03-11T08:36:50;98508.94;;;-4.30;64.79
75617;BME280;64200;55.426;37.758;2023-03-11T08:41:51;98506.47;;;-3.96;64.39
75617;BME280;64200;55.426;37.758;2023-03-11T08:46:51;98491.00;;;-4.20;65.03
75617;BME280;64200;55.426;37.758;2023-03-11T08:51:52;98513.63;;;-4.49;66.02
75617;BME280;64200;55.426;37.758;2023-03-11T08:56:52;98526.84;;;-4.29;65.68
75617;BME280;64200;55.426;37.758;2023-03-11T09:01:53;98524.81;;;-4.11;65.41
75617;BME280;64200;55.426;37.758;2023-03-11T09:06:53;98514.34;;;-4.27;65.82
75617;BME280;64200;55.426;37.758;2023-03-11T09:11:54;98480.50;;;-4.22;65.51
75617;BME280;64200;55.426;37.758;2023-03-11T09:16:54;98493.41;;;-4.44;66.10
75617;BME280;64200;55.426;37.758;2023-03-11T09:21:55;98479.03;;;-4.45;65.93
75617;BME280;64200;55.426;37.758;2023-03-11T09:26:55;98479.84;;;-4.59;67.35
75617;BME280;64200;55.426;37.758;2023-03-11T09:31:57;98457.72;;;-4.64;66.54
75617;BME280;64200;55.426;37.758;2023-03-11T09:36:59;98472.06;;;-4.53;66.85
75617;BME280;64200;55.426;37.758;2023-03-11T09:42:14;98456.41;;;-4.27;66.01
75617;BME280;64200;55.426;37.758;2023-03-11T09:47:43;98453.31;;;-4.29;66.38
75617;BME280;64200;55.426;37.758;2023-03-11T09:57:51;98431.59;;;-4.44;66.43
75617;BME280;64200;55.426;37.758;2023-03-11T10:02:53;98418.34;;;-4.38;67.54
75617;BME280;64200;55.426;37.758;2023-03-11T10:08:00;98413.66;;;-4.30;66.76
75617;BME280;64200;55.426;37.758;2023-03-11T10:13:12;98414.28;;;-4.04;66.76
75617;BME280;64200;55.426;37.758;2023-03-11T10:24:04;98406.66;;;-4.28;66.81
75617;BME280;64200;55.426;37.758;2023-03-11T10:29:31;98370.34;;;-4.07;66.71
75617;BME280;64200;55.426;37.758;2023-03-11T10:39:38;98352.41;;;-3.51;65.09
75617;BME280;64200;55.426;37.758;2023-03-11T10:44:40;98341.22;;;-3.64;65.43
75617;BME280;64200;55.426;37.758;2023-03-11T10:49:41;98322.91;;;-3.60;66.04
75617;BME280;64200;55.426;37.758;2023-03-11T10:54:47;98319.19;;;-3.39;65.11
75617;BME280;64200;55.426;37.758;2023-03-11T10:59:50;98315.66;;;-3.36;64.45
75617;BME280;64200;55.426;37.758;2023-03-11T11:20:29;98270.03;;;-3.28;64.93
75617;BME280;64200;55.426;37.758;2023-03-11T11:25:35;98303.97;;;-3.33;65.00
75617;BME280;64200;55.426;37.758;2023-03-11T11:30:54;98296.22;;;-3.38;65.74
75617;BME280;64200;55.426;37.758;2023-03-11T11:35:59;98293.78;;;-3.29;65.29
75617;BME280;64200;55.426;37.758;2023-03-11T11:41:02;98321.63;;;-3.45;65.45
75617;BME280;64200;55.426;37.758;2023-03-11T11:46:08;98292.69;;;-3.35;66.03
75617;BME280;64200;55.426;37.758;2023-03-11T11:51:22;98288.91;;;-3.48;66.26
75617;BME280;64200;55.426;37.758;2023-03-11T11:56:24;98304.81;;;-3.40;65.82
75617;BME280;64200;55.426;37.758;2023-03-11T12:01:40;98285.44;;;-3.49;66.01
75617;BME280;64200;55.426;37.758;2023-03-11T12:11:56;98247.84;;;-3.30;66.16
75617;BME280;64200;55.426;37.758;2023-03-11T12:17:02;98238.75;;;-3.20;65.83
75617;BME280;64200;55.426;37.758;2023-03-11T12:27:24;98225.50;;;-3.18;65.61
75617;BME280;64200;55.426;37.758;2023-03-11T12:32:36;98252.16;;;-3.02;65.47
75617;BME280;64200;55.426;37.758;2023-03-11T12:37:39;98251.31;;;-2.95;65.00
75617;BME280;64200;55.426;37.758;2023-03-11T12:42:39;98236.69;;;-3.09;65.47
75617;BME280;64200;55.426;37.758;2023-03-11T12:47:42;98215.84;;;-2.95;65.79
75617;BME280;64200;55.426;37.758;2023-03-11T12:52:52;98200.31;;;-2.71;65.46
75617;BME280;64200;55.426;37.758;2023-03-11T12:58:01;98189.72;;;-2.93;65.96
75617;BME280;64200;55.426;37.758;2023-03-11T13:03:15;98201.34;;;-2.61;65.29
75617;BME280;64200;55.426;37.758;2023-03-11T13:13:40;98177.59;;;-2.92;65.98
75617;BME280;64200;55.426;37.758;2023-03-11T13:18:43;98170.94;;;-2.87;65.85
75617;BME280;64200;55.426;37.758;2023-03-11T13:23:44;98173.75;;;-2.94;67.00
75617;BME280;64200;55.426;37.758;2023-03-11T13:28:53;98162.78;;;-3.18;68.32
75617;BME280;64200;55.426;37.758;2023-03-11T13:34:42;98154.09;;;-3.09;68.47
75617;BME280;64200;55.426;37.758;2023-03-11T13:40:10;98162.03;;;-2.91;67.71
75617;BME280;64200;55.426;37.758;2023-03-11T13:45:32;98147.06;;;-2.83;68.04
75617;BME280;64200;55.426;37.758;2023-03-11T13:50:37;98127.66;;;-2.61;67.56
75617;BME280;64200;55.426;37.758;2023-03-11T13:55:44;98131.63;;;-2.66;67.33
75617;BME280;64200;55.426;37.758;2023-03-11T14:00:47;98108.78;;;-2.76;67.59
75617;BME280;64200;55.426;37.758;2023-03-11T14:05:59;98095.38;;;-2.67;67.82
75617;BME280;64200;55.426;37.758;2023-03-11T14:11:16;98111.38;;;-2.69;67.91
75617;BME280;64200;55.426;37.758;2023-03-11T14:21:21;98088.69;;;-2.62;67.83
75617;BME280;64200;55.426;37.758;2023-03-11T14:26:28;98077.16;;;-2.50;67.29
75617;BME280;64200;55.426;37.758;2023-03-11T14:31:30;98060.78;;;-2.50;67.10
75617;BME280;64200;55.426;37.758;2023-03-11T14:41:55;98050.16;;;-2.68;67.64
75617;BME280;64200;55.426;37.758;2023-03-11T14:47:10;98039.91;;;-2.60;67.41
75617;BME280;64200;55.426;37.758;2023-03-11T14:52:54;98040.31;;;-2.61;68.04
75617;BME280;64200;55.426;37.758;2023-03-11T14:57:49;98059.75;;;-2.83;69.13
75617;BME280;64200;55.426;37.758;2023-03-11T15:03:01;98036.41;;;-2.84;69.41
75617;BME280;64200;55.426;37.758;2023-03-11T15:08:03;98045.00;;;-2.86;69.71
75617;BME280;64200;55.426;37.758;2023-03-11T15:13:14;98054.97;;;-2.75;69.66
75617;BME280;64200;55.426;37.758;2023-03-11T15:18:27;98030.22;;;-2.65;69.72
75617;BME280;64200;55.426;37.758;2023-03-11T15:23:29;98042.84;;;-2.51;69.65
75617;BME280;64200;55.426;37.758;2023-03-11T15:28:31;98032.16;;;-2.41;68.98
75617;BME280;64200;55.426;37.758;2023-03-11T15:33:32;97998.88;;;-2.56;69.47
75617;BME280;64200;55.426;37.758;2023-03-11T15:38:33;97994.19;;;-2.56;70.02
75617;BME280;64200;55.426;37.758;2023-03-11T15:43:44;97994.88;;;-2.52;70.05
75617;BME280;64200;55.426;37.758;2023-03-11T15:48:46;97986.56;;;-2.44;69.78
75617;BME280;64200;55.426;37.758;2023-03-11T15:53:47;97982.91;;;-2.58;71.14
75617;BME280;64200;55.426;37.758;2023-03-11T15:58:48;97955.56;;;-2.54;70.87
75617;BME280;64200;55.426;37.758;2023-03-11T16:03:48;97979.28;;;-2.51;70.79
75617;BME280;64200;55.426;37.758;2023-03-11T16:08:49;97962.41;;;-2.46;71.47
75617;BME280;64200;55.426;37.758;2023-03-11T16:13:49;97948.69;;;-2.62;71.67
75617;BME280;64200;55.426;37.758;2023-03-11T16:18:50;97930.22;;;-2.55;71.37
75617;BME280;64200;55.426;37.758;2023-03-11T16:23:51;97941.78;;;-2.47;72.48
75617;BME280;64200;55.426;37.758;2023-03-11T16:28:52;97893.81;;;-2.48;71.27
75617;BME280;64200;55.426;37.758;2023-03-11T16:33:53;97896.88;;;-2.26;71.42
75617;BME280;64200;55.426;37.758;2023-03-11T16:38:53;97897.38;;;-2.31;71.28
75617;BME280;64200;55.426;37.758;2023-03-11T16:43:54;97878.63;;;-2.29;71.39
75617;BME280;64200;55.426;37.758;2023-03-11T16:48:54;97875.78;;;-2.25;71.43
75617;BME280;64200;55.426;37.758;2023-03-11T16:53:55;97869.00;;;-2.17;71.82
75617;BME280;64200;55.426;37.758;2023-03-11T16:58:56;97862.16;;;-2.09;71.54
75617;BME280;64200;55.426;37.758;2023-03-11T17:03:56;97848.00;;;-2.04;71.41
75617;BME280;64200;55.426;37.758;2023-03-11T17:08:58;97840.09;;;-1.98;71.10
75617;BME280;64200;55.426;37.758;2023-03-11T17:13:59;97842.03;;;-1.99;72.04
75617;BME280;64200;55.426;37.758;2023-03-11T17:19:00;97837.19;;;-1.91;71.58
75617;BME280;64200;55.426;37.758;2023-03-11T17:24:01;97838.38;;;-1.75;71.27
75617;BME280;64200;55.426;37.758;2023-03-11T17:29:02;97804.88;;;-1.80;71.51
75617;BME280;64200;55.426;37.758;2023-03-11T17:34:03;97787.06;;;-1.84;71.47
75617;BME280;64200;55.426;37.758;2023-03-11T17:39:03;97789.50;;;-1.73;71.48
75617;BME280;64200;55.426;37.758;2023-03-11T17:44:04;97769.09;;;-1.69;71.92
75617;BME280;64200;55.426;37.758;2023-03-11T17:49:08;97753.66;;;-1.75;71.77
75617;BME280;64200;55.426;37.758;2023-03-11T17:54:11;97758.34;;;-1.76;72.50
75617;BME280;64200;55.426;37.758;2023-03-11T17:59:12;97743.97;;;-1.64;72.29
75617;BME280;64200;55.426;37.758;2023-03-11T18:04:13;97751.31;;;-1.61;72.69
75617;BME280;64200;55.426;37.758;2023-03-11T18:09:13;97740.13;;;-1.66;73.62
75617;BME280;64200;55.426;37.758;2023-03-11T18:14:16;97754.19;;;-1.51;73.57
75617;BME280;64200;55.426;37.758;2023-03-11T18:19:18;97766.81;;;-1.41;73.20
75617;BME280;64200;55.426;37.758;2023-03-11T18:24:19;97733.63;;;-1.56;74.54
75617;BME280;64200;55.426;37.758;2023-03-11T18:29:21;97738.66;;;-1.54;74.22
75617;BME280;64200;55.426;37.758;2023-03-11T18:34:22;97723.41;;;-1.39;73.75
75617;BME280;64200;55.426;37.758;2023-03-11T18:39:23;97721.25;;;-1.31;74.34
75617;BME280;64200;55.426;37.758;2023-03-11T18:44:23;97694.09;;;-1.38;74.02
75617;BME280;64200;55.426;37.758;2023-03-11T18:49:24;97680.53;;;-1.29;74.51
75617;BME280;64200;55.426;37.758;2023-03-11T18:54:24;97673.31;;;-1.23;74.56
75617;BME280;64200;55.426;37.758;2023-03-11T18:59:26;97669.16;;;-1.28;74.90
75617;BME280;64200;55.426;37.758;2023-03-11T19:04:29;97663.50;;;-1.20;75.39
75617;BME280;64200;55.426;37.758;2023-03-11T19:09:30;97649.06;;;-1.21;75.10
75617;BME280;64200;55.426;37.758;2023-03-11T19:14:30;97652.56;;;-1.08;74.95
75617;BME280;64200;55.426;37.758;2023-03-11T19:19:31;97622.47;;;-1.08;75.03
75617;BME280;64200;55.426;37.758;2023-03-11T19:24:33;97611.63;;;-0.98;75.23
75617;BME280;64200;55.426;37.758;2023-03-11T19:29:33;97593.44;;;-0.92;75.61
75617;BME280;64200;55.426;37.758;2023-03-11T19:34:35;97586.34;;;-0.77;74.78
75617;BME280;64200;55.426;37.758;2023-03-11T19:39:35;97523.72;;;-0.88;75.79
75617;BME280;64200;55.426;37.758;2023-03-11T19:44:36;97551.28;;;-0.69;76.16
75617;BME280;64200;55.426;37.758;2023-03-11T19:49:36;97564.75;;;-0.62;75.90
75617;BME280;64200;55.426;37.758;2023-03-11T19:54:37;97549.06;;;-0.61;76.86
75617;BME280;64200;55.426;37.758;2023-03-11T19:59:37;97538.31;;;-0.56;76.57
75617;BME280;64200;55.426;37.758;2023-03-11T20:04:38;97549.06;;;-0.61;78.50
75617;BME280;64200;55.426;37.758;2023-03-11T20:09:39;97517.41;;;-0.62;78.72
75617;BME280;64200;55.426;37.758;2023-03-11T20:14:41;97506.00;;;-0.61;78.27
75617;BME280;64200;55.426;37.758;2023-03-11T20:19:42;97501.28;;;-0.47;79.28
75617;BME280;64200;55.426;37.758;2023-03-11T20:24:42;97493.56;;;-0.40;78.64
75617;BME280;64200;55.426;37.758;2023-03-11T20:29:43;97470.13;;;-0.41;79.29
75617;BME280;64200;55.426;37.758;2023-03-11T20:34:44;97473.88;;;-0.25;79.37
75617;BME280;64200;55.426;37.758;2023-03-11T20:39:44;97453.88;;;-0.35;80.75
75617;BME280;64200;55.426;37.758;2023-03-11T20:44:45;97455.94;;;-0.26;80.84
75617;BME280;64200;55.426;37.758;2023-03-11T20:49:45;97442.41;;;-0.21;82.44
75617;BME280;64200;55.426;37.758;2023-03-11T20:54:46;97421.91;;;-0.16;81.62
75617;BME280;64200;55.426;37.758;2023-03-11T20:59:46;97412.69;;;0.00;82.00
75617;BME280;64200;55.426;37.758;2023-03-11T21:04:47;97394.28;;;0.10;82.46
75617;BME280;64200;55.426;37.758;2023-03-11T21:09:47;97368.28;;;0.14;83.43
75617;BME280;64200;55.426;37.758;2023-03-11T21:14:53;97363.44;;;0.28;82.96
75617;BME280;64200;55.426;37.758;2023-03-11T21:19:54;97347.03;;;0.37;83.47
75617;BME280;64200;55.426;37.758;2023-03-11T21:24:54;97328.59;;;0.47;83.32
75617;BME280;64200;55.426;37.758;2023-03-11T21:29:56;97333.63;;;0.48;83.52
75617;BME280;64200;55.426;37.758;2023-03-11T21:34:58;97343.09;;;0.57;83.56
75617;BME280;64200;55.426;37.758;2023-03-11T21:39:58;97332.75;;;0.61;83.83
75617;BME280;64200;55.426;37.758;2023-03-11T21:44:59;97280.59;;;0.51;83.38
75617;BME280;64200;55.426;37.758;2023-03-11T21:50:00;97279.84;;;0.60;83.67
75617;BME280;64200;55.426;37.758;2023-03-11T21:55:00;97257.31;;;0.65;83.58
75617;BME280;64200;55.426;37.758;2023-03-11T22:00:01;97256.38;;;0.68;83.98
75617;BME280;64200;55.426;37.758;2023-03-11T22:05:04;97249.50;;;0.82;83.87
75617;BME280;64200;55.426;37.758;2023-03-11T22:10:05;97238.06;;;0.84;83.62
75617;BME280;64200;55.426;37.758;2023-03-11T22:15:06;97234.25;;;0.91;83.63
75617;BME280;64200;55.426;37.758;2023-03-11T22:20:07;97221.44;;;0.97;83.42
75617;BME280;64200;55.426;37.758;2023-03-11T22:25:09;97215.94;;;0.97;83.30
75617;BME280;64200;55.426;37.758;2023-03-11T22:30:10;97211.06;;;0.92;84.46
75617;BME280;64200;55.426;37.758;2023-03-11T22:35:11;97195.16;;;1.14;83.55
75617;BME280;64200;55.426;37.758;2023-03-11T22:40:11;97197.13;;;1.14;83.49
75617;BME280;64200;55.426;37.758;2023-03-11T22:45:12;97189.81;;;1.11;83.93
75617;BME280;64200;55.426;37.758;2023-03-11T22:50:13;97172.72;;;1.16;84.24
75617;BME280;64200;55.426;37.758;2023-03-11T22:55:13;97193.59;;;1.22;84.74
75617;BME280;64200;55.426;37.758;2023-03-11T23:00:19;97159.38;;;1.33;84.20
75617;BME280;64200;55.426;37.758;2023-03-11T23:05:20;97168.81;;;1.41;84.02
75617;BME280;64200;55.426;37.758;2023-03-11T23:10:21;97133.09;;;1.41;84.74
75617;BME280;64200;55.426;37.758;2023-03-11T23:15:22;97145.44;;;1.46;84.91
75617;BME280;64200;55.426;37.758;2023-03-11T23:20:25;97119.13;;;1.54;84.29
75617;BME280;64200;55.426;37.758;2023-03-11T23:25:28;97114.75;;;1.71;85.12
75617;BME280;64200;55.426;37.758;2023-03-11T23:30:29;97105.09;;;1.76;84.58
75617;BME280;64200;55.426;37.758;2023-03-11T23:35:30;97107.78;;;1.85;84.31
75617;BME280;64200;55.426;37.758;2023-03-11T23:40:31;97071.13;;;1.88;84.97
75617;BME280;64200;55.426;37.758;2023-03-11T23:45:32;97078.88;;;1.90;84.89
75617;BME280;64200;55.426;37.758;2023-03-11T23:50:32;97072.44;;;1.93;84.74
75617;BME280;64200;55.426;37.758;2023-03-11T23:55:36;97054.66;;;2.03;85.45
